world map with SLRB marked

SLRB - Airport

This information may not be accurate or current and is not valid for navigation or flight planning. No warranty of fitness for any purpose is made or implied.

flag of Santa Cruzflag of Bolivia

Donate via PayPal

Additional information is available on the NEW Great Circle Mapper

Location
City:  Roboré, Chiquitos, Santa Cruz, Bolivia
Name:Roboré Airport
ICAO / IATA:SLRB / RBO

Details
Type:Airport (Aerodrome, Airfield)
Latitude:18°19'39"S (-18.327499)
Longitude:59°45'56"W (-59.765555)
Elevation:905 ft (276 m)
Runways:1
Longest:3937 × 295 ft (1200 × 90 m)

Time
Timezone:UTC+30:08 (DST+32:08)
Local Time:

Weather
METAR:SLRB  041400Z 00000KT 9999 OVC006 24/24 Q1019

Related Locations
Nearby:
Farthest:LAO: 12429 mi / 20003 km
Laoag [Intl], Luzon Island, PH

Find:

   beyond  
but within

Other Information
Maps:
Sources:

  


 


Great Circle Mapper   Great Circle Mapper
Great Circle Mapper FAQ   Great Circle Mapper FAQ
  Karl's Home Page
KLS˛   KLS˛ Home
   GC on Facebook
Airlines of the World   Airlines of the World
Donate via PayPal


Copyright © 2004-2019, Karl L. Swartz. All rights reserved.
All trademarks mentioned herein belong to their respective owners.

Please see credits for attribution and copyright information.

Karl Swartz <karl@kls2.com>
  Powered by FreeBSD
Valid HTML 4.01!
Labeled with ICRA
hCard Microformat
Geo Microformat